sensor_id;sensor_type;location;lat;lon;timestamp;pressure;altitude;pressure_sealevel;temperature;humidity
35878;BME280;21982;49.804;24.072;2023-09-12T00:02:06;97167.53;;;18.51;62.28
35878;BME280;21982;49.804;24.072;2023-09-12T00:04:31;97172.19;;;18.56;62.58
35878;BME280;21982;49.804;24.072;2023-09-12T00:06:57;97176.97;;;18.54;62.46
35878;BME280;21982;49.804;24.072;2023-09-12T00:09:22;97183.16;;;18.54;62.58
35878;BME280;21982;49.804;24.072;2023-09-12T00:11:48;97178.25;;;18.51;62.51
35878;BME280;21982;49.804;24.072;2023-09-12T00:14:17;97184.19;;;18.53;62.68
35878;BME280;21982;49.804;24.072;2023-09-12T00:16:43;97179.22;;;18.45;62.66
35878;BME280;21982;49.804;24.072;2023-09-12T00:19:08;97123.81;;;18.05;62.62
35878;BME280;21982;49.804;24.072;2023-09-12T00:21:36;97157.75;;;18.28;62.75
35878;BME280;21982;49.804;24.072;2023-09-12T00:24:02;97174.81;;;18.39;62.82
35878;BME280;21982;49.804;24.072;2023-09-12T00:26:28;97168.25;;;18.30;62.88
35878;BME280;21982;49.804;24.072;2023-09-12T00:28:56;97180.69;;;18.36;63.05
35878;BME280;21982;49.804;24.072;2023-09-12T00:31:21;97157.66;;;18.23;62.79
35878;BME280;21982;49.804;24.072;2023-09-12T00:33:46;97134.78;;;18.04;63.19
35878;BME280;21982;49.804;24.072;2023-09-12T00:36:12;97178.16;;;18.29;63.19
35878;BME280;21982;49.804;24.072;2023-09-12T00:38:37;97135.50;;;17.99;63.22
35878;BME280;21982;49.804;24.072;2023-09-12T00:41:03;97180.16;;;18.22;63.49
35878;BME280;21982;49.804;24.072;2023-09-12T00:43:28;97177.94;;;18.19;63.46
35878;BME280;21982;49.804;24.072;2023-09-12T00:45:53;97179.25;;;18.17;63.38
35878;BME280;21982;49.804;24.072;2023-09-12T00:48:20;97182.97;;;18.16;63.38
35878;BME280;21982;49.804;24.072;2023-09-12T00:50:48;97149.97;;;17.98;63.73
35878;BME280;21982;49.804;24.072;2023-09-12T00:53:14;97172.53;;;18.02;63.65
35878;BME280;21982;49.804;24.072;2023-09-12T00:55:46;97171.22;;;18.05;63.78
35878;BME280;21982;49.804;24.072;2023-09-12T00:58:14;97177.34;;;18.00;63.90
35878;BME280;21982;49.804;24.072;2023-09-12T01:00:41;97167.66;;;17.99;64.01
35878;BME280;21982;49.804;24.072;2023-09-12T01:03:06;97147.06;;;17.88;64.02
35878;BME280;21982;49.804;24.072;2023-09-12T01:05:32;97128.00;;;17.73;64.06
35878;BME280;21982;49.804;24.072;2023-09-12T01:07:59;97129.06;;;17.72;64.27
35878;BME280;21982;49.804;24.072;2023-09-12T01:10:25;97163.72;;;17.90;64.32
35878;BME280;21982;49.804;24.072;2023-09-12T01:12:52;97174.31;;;17.97;64.35
35878;BME280;21982;49.804;24.072;2023-09-12T01:15:18;97160.94;;;17.85;64.56
35878;BME280;21982;49.804;24.072;2023-09-12T01:17:44;97173.41;;;17.91;64.43
35878;BME280;21982;49.804;24.072;2023-09-12T01:20:20;97117.78;;;17.58;64.39
35878;BME280;21982;49.804;24.072;2023-09-12T01:23:13;97178.16;;;17.89;64.18
35878;BME280;21982;49.804;24.072;2023-09-12T01:26:01;97147.22;;;17.70;64.33
35878;BME280;21982;49.804;24.072;2023-09-12T01:28:30;97170.50;;;17.81;64.89
35878;BME280;21982;49.804;24.072;2023-09-12T01:30:58;97143.63;;;17.64;64.83
35878;BME280;21982;49.804;24.072;2023-09-12T01:33:25;97117.47;;;17.43;64.95
35878;BME280;21982;49.804;24.072;2023-09-12T01:35:51;97110.84;;;17.34;65.02
35878;BME280;21982;49.804;24.072;2023-09-12T01:38:16;97174.81;;;17.70;65.15
35878;BME280;21982;49.804;24.072;2023-09-12T01:40:49;97167.38;;;17.72;65.16
35878;BME280;21982;49.804;24.072;2023-09-12T01:43:22;97122.94;;;17.36;65.23
35878;BME280;21982;49.804;24.072;2023-09-12T01:45:49;97097.16;;;17.19;65.41
35878;BME280;21982;49.804;24.072;2023-09-12T01:48:19;97169.59;;;17.64;65.45
35878;BME280;21982;49.804;24.072;2023-09-12T01:50:45;97166.13;;;17.52;65.74
35878;BME280;21982;49.804;24.072;2023-09-12T01:53:11;97171.00;;;17.55;65.79
35878;BME280;21982;49.804;24.072;2023-09-12T01:55:37;97152.03;;;17.45;66.10
35878;BME280;21982;49.804;24.072;2023-09-12T01:58:03;97120.66;;;17.17;66.04
35878;BME280;21982;49.804;24.072;2023-09-12T02:00:29;97173.78;;;17.48;65.95
35878;BME280;21982;49.804;24.072;2023-09-12T02:02:54;97127.88;;;17.16;66.10
35878;BME280;21982;49.804;24.072;2023-09-12T02:05:21;97144.75;;;17.28;66.08
35878;BME280;21982;49.804;24.072;2023-09-12T02:07:47;97171.25;;;17.41;66.30
35878;BME280;21982;49.804;24.072;2023-09-12T02:10:13;97178.69;;;17.39;66.60
35878;BME280;21982;49.804;24.072;2023-09-12T02:12:40;97154.75;;;17.21;66.30
35878;BME280;21982;49.804;24.072;2023-09-12T02:15:06;97162.88;;;17.26;66.65
35878;BME280;21982;49.804;24.072;2023-09-12T02:17:33;97106.94;;;16.90;66.49
35878;BME280;21982;49.804;24.072;2023-09-12T02:19:59;97176.84;;;17.28;66.72
35878;BME280;21982;49.804;24.072;2023-09-12T02:22:24;97177.31;;;17.25;66.67
35878;BME280;21982;49.804;24.072;2023-09-12T02:24:50;97161.03;;;17.15;66.81
35878;BME280;21982;49.804;24.072;2023-09-12T02:27:16;97146.59;;;17.04;66.78
35878;BME280;21982;49.804;24.072;2023-09-12T02:29:42;97133.34;;;16.98;67.00
35878;BME280;21982;49.804;24.072;2023-09-12T02:32:08;97113.00;;;16.85;66.93
35878;BME280;21982;49.804;24.072;2023-09-12T02:34:33;97161.03;;;17.15;66.96
35878;BME280;21982;49.804;24.072;2023-09-12T02:36:59;97160.22;;;17.15;67.12
35878;BME280;21982;49.804;24.072;2023-09-12T02:39:24;97137.06;;;16.97;66.79
35878;BME280;21982;49.804;24.072;2023-09-12T02:41:50;97161.03;;;17.15;67.04
35878;BME280;21982;49.804;24.072;2023-09-12T02:44:15;97161.03;;;17.15;67.09
35878;BME280;21982;49.804;24.072;2023-09-12T02:46:41;97164.75;;;17.14;67.27
35878;BME280;21982;49.804;24.072;2023-09-12T02:49:06;97084.34;;;16.62;67.09
35878;BME280;21982;49.804;24.072;2023-09-12T02:51:32;97161.13;;;17.08;67.34
35878;BME280;21982;49.804;24.072;2023-09-12T02:53:57;97154.38;;;17.06;67.44
35878;BME280;21982;49.804;24.072;2023-09-12T02:56:22;97149.06;;;16.94;67.38
35878;BME280;21982;49.804;24.072;2023-09-12T02:58:48;97156.69;;;17.02;67.71
35878;BME280;21982;49.804;24.072;2023-09-12T03:01:18;97162.06;;;17.02;67.60
35878;BME280;21982;49.804;24.072;2023-09-12T03:03:47;97136.00;;;16.86;67.55
35878;BME280;21982;49.804;24.072;2023-09-12T03:06:13;97153.81;;;16.92;67.87
35878;BME280;21982;49.804;24.072;2023-09-12T03:08:40;97158.22;;;16.98;67.93
35878;BME280;21982;49.804;24.072;2023-09-12T03:11:05;97153.44;;;17.00;67.97
35878;BME280;21982;49.804;24.072;2023-09-12T03:13:32;97150.44;;;16.97;67.75
35878;BME280;21982;49.804;24.072;2023-09-12T03:15:58;97159.59;;;17.01;67.83
35878;BME280;21982;49.804;24.072;2023-09-12T03:18:23;97158.56;;;17.02;68.02
35878;BME280;21982;49.804;24.072;2023-09-12T03:20:48;97120.53;;;16.77;67.91
35878;BME280;21982;49.804;24.072;2023-09-12T03:23:14;97137.88;;;16.86;67.62
35878;BME280;21982;49.804;24.072;2023-09-12T03:25:39;97161.25;;;17.02;67.99
35878;BME280;21982;49.804;24.072;2023-09-12T03:28:05;97170.91;;;17.03;67.97
35878;BME280;21982;49.804;24.072;2023-09-12T03:30:35;97169.84;;;17.04;67.87
35878;BME280;21982;49.804;24.072;2023-09-12T03:33:01;97136.13;;;16.80;68.02
35878;BME280;21982;49.804;24.072;2023-09-12T03:35:28;97167.63;;;17.01;68.01
35878;BME280;21982;49.804;24.072;2023-09-12T03:37:54;97121.44;;;16.70;68.12
35878;BME280;21982;49.804;24.072;2023-09-12T03:40:19;97160.34;;;16.96;68.15
35878;BME280;21982;49.804;24.072;2023-09-12T03:42:45;97163.00;;;16.96;68.24
35878;BME280;21982;49.804;24.072;2023-09-12T03:45:10;97171.84;;;16.97;68.14
35878;BME280;21982;49.804;24.072;2023-09-12T03:47:36;97171.84;;;16.97;68.13
35878;BME280;21982;49.804;24.072;2023-09-12T03:50:02;97171.25;;;16.95;68.08
35878;BME280;21982;49.804;24.072;2023-09-12T03:52:28;97177.06;;;16.92;68.33
35878;BME280;21982;49.804;24.072;2023-09-12T03:54:53;97177.06;;;16.92;68.36
35878;BME280;21982;49.804;24.072;2023-09-12T03:57:19;97159.41;;;16.91;68.43
35878;BME280;21982;49.804;24.072;2023-09-12T03:59:44;97174.38;;;17.03;68.23
35878;BME280;21982;49.804;24.072;2023-09-12T04:02:12;97175.19;;;17.04;68.20
35878;BME280;21982;49.804;24.072;2023-09-12T04:04:37;97168.34;;;16.96;68.08
35878;BME280;21982;49.804;24.072;2023-09-12T04:07:03;97165.69;;;16.96;67.83
35878;BME280;21982;49.804;24.072;2023-09-12T04:09:28;97181.59;;;17.03;68.23
35878;BME280;21982;49.804;24.072;2023-09-12T04:11:54;97174.63;;;17.02;68.27
35878;BME280;21982;49.804;24.072;2023-09-12T04:14:20;97172.41;;;16.99;68.28
35878;BME280;21982;49.804;24.072;2023-09-12T04:16:46;97095.25;;;16.49;68.07
35878;BME280;21982;49.804;24.072;2023-09-12T04:19:11;97068.59;;;16.31;68.25
35878;BME280;21982;49.804;24.072;2023-09-12T04:21:37;97171.72;;;16.92;68.18
35878;BME280;21982;49.804;24.072;2023-09-12T04:24:02;97169.03;;;16.92;67.95
35878;BME280;21982;49.804;24.072;2023-09-12T04:26:28;97156.25;;;16.82;68.21
35878;BME280;21982;49.804;24.072;2023-09-12T04:28:53;97163.94;;;16.90;67.96
35878;BME280;21982;49.804;24.072;2023-09-12T04:31:18;97171.94;;;16.90;68.19
35878;BME280;21982;49.804;24.072;2023-09-12T04:33:44;97111.06;;;16.51;68.03
35878;BME280;21982;49.804;24.072;2023-09-12T04:36:09;97129.81;;;16.62;68.04
35878;BME280;21982;49.804;24.072;2023-09-12T04:38:35;97152.16;;;16.80;68.09
35878;BME280;21982;49.804;24.072;2023-09-12T04:41:02;97154.16;;;16.84;67.90
35878;BME280;21982;49.804;24.072;2023-09-12T04:43:30;97168.69;;;17.00;68.12
35878;BME280;21982;49.804;24.072;2023-09-12T04:45:56;97171.97;;;17.25;67.77
35878;BME280;21982;49.804;24.072;2023-09-12T04:48:21;97174.75;;;17.30;67.39
35878;BME280;21982;49.804;24.072;2023-09-12T04:50:47;97152.03;;;17.56;66.87
35878;BME280;21982;49.804;24.072;2023-09-12T04:53:12;97147.94;;;18.05;65.78
35878;BME280;21982;49.804;24.072;2023-09-12T04:55:38;97168.81;;;18.60;64.58
35878;BME280;21982;49.804;24.072;2023-09-12T04:58:05;97161.13;;;18.52;64.32
35878;BME280;21982;49.804;24.072;2023-09-12T05:00:32;97137.50;;;17.92;64.52
35878;BME280;21982;49.804;24.072;2023-09-12T05:02:57;97107.31;;;17.57;65.07
35878;BME280;21982;49.804;24.072;2023-09-12T05:05:23;97163.25;;;17.93;65.54
35878;BME280;21982;49.804;24.072;2023-09-12T05:07:48;97108.38;;;18.24;64.67
35878;BME280;21982;49.804;24.072;2023-09-12T05:10:13;97185.06;;;19.37;63.17
35878;BME280;21982;49.804;24.072;2023-09-12T05:12:39;97179.75;;;19.81;61.90
35878;BME280;21982;49.804;24.072;2023-09-12T05:15:05;97191.88;;;19.62;61.65
35878;BME280;21982;49.804;24.072;2023-09-12T05:17:30;97193.59;;;19.18;62.19
35878;BME280;21982;49.804;24.072;2023-09-12T05:19:55;97171.66;;;18.70;63.16
35878;BME280;21982;49.804;24.072;2023-09-12T05:22:21;97146.31;;;18.33;63.47
35878;BME280;21982;49.804;24.072;2023-09-12T05:24:46;97182.03;;;18.38;63.79
35878;BME280;21982;49.804;24.072;2023-09-12T05:27:13;97200.44;;;18.47;64.13
35878;BME280;21982;49.804;24.072;2023-09-12T05:29:38;97173.25;;;18.26;64.36
35878;BME280;21982;49.804;24.072;2023-09-12T05:32:04;97169.19;;;18.24;64.66
35878;BME280;21982;49.804;24.072;2023-09-12T05:34:30;97166.84;;;18.27;64.91
35878;BME280;21982;49.804;24.072;2023-09-12T05:36:56;97199.34;;;18.59;64.79
35878;BME280;21982;49.804;24.072;2023-09-12T05:39:22;97205.41;;;18.66;64.91
35878;BME280;21982;49.804;24.072;2023-09-12T05:41:49;97199.56;;;18.86;64.77
35878;BME280;21982;49.804;24.072;2023-09-12T05:44:15;97206.03;;;19.57;63.99
35878;BME280;21982;49.804;24.072;2023-09-12T05:46:47;97204.50;;;20.27;62.57
35878;BME280;21982;49.804;24.072;2023-09-12T05:49:14;97205.56;;;20.80;61.67
35878;BME280;21982;49.804;24.072;2023-09-12T05:51:41;97217.16;;;21.91;60.07
35878;BME280;21982;49.804;24.072;2023-09-12T05:54:09;97206.97;;;22.96;57.78
35878;BME280;21982;49.804;24.072;2023-09-12T05:56:35;97200.44;;;23.79;55.98
35878;BME280;21982;49.804;24.072;2023-09-12T05:59:00;97202.31;;;24.53;54.26
35878;BME280;21982;49.804;24.072;2023-09-12T06:01:25;97189.69;;;25.16;53.26
35878;BME280;21982;49.804;24.072;2023-09-12T06:03:51;97147.69;;;25.43;51.95
35878;BME280;21982;49.804;24.072;2023-09-12T06:06:16;97218.38;;;26.28;50.74
35878;BME280;21982;49.804;24.072;2023-09-12T06:08:41;97175.63;;;26.38;49.98
35878;BME280;21982;49.804;24.072;2023-09-12T06:11:07;97168.34;;;26.71;49.06
35878;BME280;21982;49.804;24.072;2023-09-12T06:13:32;97224.50;;;27.32;48.47
35878;BME280;21982;49.804;24.072;2023-09-12T06:15:59;97221.72;;;27.51;48.19
35878;BME280;21982;49.804;24.072;2023-09-12T06:18:24;97207.06;;;27.66;47.61
35878;BME280;21982;49.804;24.072;2023-09-12T06:20:52;97177.75;;;27.63;47.22
35878;BME280;21982;49.804;24.072;2023-09-12T06:23:17;97222.75;;;28.29;46.71
35878;BME280;21982;49.804;24.072;2023-09-12T06:25:42;97229.34;;;28.64;45.69
35878;BME280;21982;49.804;24.072;2023-09-12T06:28:09;97103.91;;;28.19;45.04
35878;BME280;21982;49.804;24.072;2023-09-12T06:30:35;97188.34;;;29.05;44.27
35878;BME280;21982;49.804;24.072;2023-09-12T06:33:00;97228.75;;;29.70;43.66
35878;BME280;21982;49.804;24.072;2023-09-12T06:35:26;97231.03;;;30.08;43.12
35878;BME280;21982;49.804;24.072;2023-09-12T06:37:51;97213.09;;;30.32;42.26
35878;BME280;21982;49.804;24.072;2023-09-12T06:40:17;97182.94;;;30.46;41.77
35878;BME280;21982;49.804;24.072;2023-09-12T06:42:43;97234.28;;;31.10;41.16
35878;BME280;21982;49.804;24.072;2023-09-12T06:45:09;97237.19;;;31.39;40.85
35878;BME280;21982;49.804;24.072;2023-09-12T06:47:34;97191.63;;;31.43;40.33
35878;BME280;21982;49.804;24.072;2023-09-12T06:49:59;97224.16;;;31.91;39.50
35878;BME280;21982;49.804;24.072;2023-09-12T06:52:25;97106.56;;;31.57;38.90
35878;BME280;21982;49.804;24.072;2023-09-12T06:54:50;97213.00;;;32.64;38.27
35878;BME280;21982;49.804;24.072;2023-09-12T06:57:16;97232.19;;;33.14;37.95
35878;BME280;21982;49.804;24.072;2023-09-12T06:59:41;97234.31;;;33.50;37.17
35878;BME280;21982;49.804;24.072;2023-09-12T07:02:06;97200.75;;;33.45;36.65
35878;BME280;21982;49.804;24.072;2023-09-12T07:04:32;97236.91;;;33.80;36.58
35878;BME280;21982;49.804;24.072;2023-09-12T07:06:58;97229.94;;;33.82;35.88
35878;BME280;21982;49.804;24.072;2023-09-12T07:09:23;97216.09;;;34.03;36.05
35878;BME280;21982;49.804;24.072;2023-09-12T07:11:49;97232.38;;;34.20;35.81
35878;BME280;21982;49.804;24.072;2023-09-12T07:14:14;97180.84;;;34.17;35.21
35878;BME280;21982;49.804;24.072;2023-09-12T07:16:40;97243.25;;;34.78;34.63
35878;BME280;21982;49.804;24.072;2023-09-12T07:19:05;97239.00;;;34.92;34.51
35878;BME280;21982;49.804;24.072;2023-09-12T07:21:31;97234.75;;;34.95;34.43
35878;BME280;21982;49.804;24.072;2023-09-12T07:23:57;97241.53;;;35.25;34.28
35878;BME280;21982;49.804;24.072;2023-09-12T07:26:22;97225.16;;;35.29;33.65
35878;BME280;21982;49.804;24.072;2023-09-12T07:28:48;97244.06;;;35.58;33.12
35878;BME280;21982;49.804;24.072;2023-09-12T07:31:14;97227.53;;;35.74;32.91
35878;BME280;21982;49.804;24.072;2023-09-12T07:33:39;97228.75;;;36.05;32.44
35878;BME280;21982;49.804;24.072;2023-09-12T07:36:06;97242.47;;;36.33;31.88
35878;BME280;21982;49.804;24.072;2023-09-12T07:38:32;97202.00;;;36.37;31.96
35878;BME280;21982;49.804;24.072;2023-09-12T07:41:00;97184.72;;;36.40;31.44
35878;BME280;21982;49.804;24.072;2023-09-12T07:43:25;97177.44;;;36.32;30.97
35878;BME280;21982;49.804;24.072;2023-09-12T07:45:59;97243.47;;;36.75;31.13
35878;BME280;21982;49.804;24.072;2023-09-12T07:48:24;97237.81;;;36.21;33.29
35878;BME280;21982;49.804;24.072;2023-09-12T07:50:50;97225.72;;;36.92;31.62
35878;BME280;21982;49.804;24.072;2023-09-12T07:53:16;97227.13;;;37.40;30.35
35878;BME280;21982;49.804;24.072;2023-09-12T07:55:42;97229.81;;;37.37;29.81
35878;BME280;21982;49.804;24.072;2023-09-12T07:58:20;97217.25;;;37.39;30.57
35878;BME280;21982;49.804;24.072;2023-09-12T08:00:46;97234.88;;;37.73;29.73
35878;BME280;21982;49.804;24.072;2023-09-12T08:03:12;97239.38;;;37.62;30.00
35878;BME280;21982;49.804;24.072;2023-09-12T08:05:39;97241.44;;;37.46;29.88
35878;BME280;21982;49.804;24.072;2023-09-12T08:08:05;97247.75;;;37.46;29.85
35878;BME280;21982;49.804;24.072;2023-09-12T08:10:30;97227.41;;;37.74;29.85
35878;BME280;21982;49.804;24.072;2023-09-12T08:12:56;97224.88;;;37.88;29.21
35878;BME280;21982;49.804;24.072;2023-09-12T08:15:21;97235.63;;;37.93;29.23
35878;BME280;21982;49.804;24.072;2023-09-12T08:17:46;97228.00;;;37.86;29.40
35878;BME280;21982;49.804;24.072;2023-09-12T08:20:18;97232.19;;;38.00;29.29
35878;BME280;21982;49.804;24.072;2023-09-12T08:22:43;97220.94;;;37.89;29.47
35878;BME280;21982;49.804;24.072;2023-09-12T08:25:09;97236.59;;;37.81;29.61
35878;BME280;21982;49.804;24.072;2023-09-12T08:27:35;97203.75;;;37.76;29.21
35878;BME280;21982;49.804;24.072;2023-09-12T08:30:02;97233.66;;;37.94;29.41
35878;BME280;21982;49.804;24.072;2023-09-12T08:32:31;97185.28;;;37.61;29.54
35878;BME280;21982;49.804;24.072;2023-09-12T08:34:56;97197.19;;;37.65;29.46
35878;BME280;21982;49.804;24.072;2023-09-12T08:37:21;97239.25;;;38.20;29.42
35878;BME280;21982;49.804;24.072;2023-09-12T08:39:47;97219.84;;;38.66;28.86
35878;BME280;21982;49.804;24.072;2023-09-12T08:42:15;97190.81;;;38.82;28.66
35878;BME280;21982;49.804;24.072;2023-09-12T08:44:42;97224.28;;;39.00;28.19
35878;BME280;21982;49.804;24.072;2023-09-12T08:47:12;97225.66;;;38.87;28.61
35878;BME280;21982;49.804;24.072;2023-09-12T08:49:39;97241.91;;;38.88;28.54
35878;BME280;21982;49.804;24.072;2023-09-12T08:52:05;97162.81;;;38.58;28.12
35878;BME280;21982;49.804;24.072;2023-09-12T08:54:31;97240.84;;;39.27;27.72
35878;BME280;21982;49.804;24.072;2023-09-12T08:56:57;97219.09;;;39.29;27.39
35878;BME280;21982;49.804;24.072;2023-09-12T08:59:23;97220.19;;;39.54;27.07
35878;BME280;21982;49.804;24.072;2023-09-12T09:01:49;97250.34;;;39.59;27.05
35878;BME280;21982;49.804;24.072;2023-09-12T09:04:18;97248.59;;;39.44;26.92
35878;BME280;21982;49.804;24.072;2023-09-12T09:06:46;97253.44;;;39.20;27.02
35878;BME280;21982;49.804;24.072;2023-09-12T09:09:12;97250.31;;;38.96;27.20
35878;BME280;21982;49.804;24.072;2023-09-12T09:11:38;97218.94;;;38.58;27.20
35878;BME280;21982;49.804;24.072;2023-09-12T09:14:03;97245.06;;;38.61;26.77
35878;BME280;21982;49.804;24.072;2023-09-12T09:16:29;97243.19;;;38.42;27.08
35878;BME280;21982;49.804;24.072;2023-09-12T09:19:03;97247.19;;;38.44;27.60
35878;BME280;21982;49.804;24.072;2023-09-12T09:21:36;97241.00;;;38.28;27.36
35878;BME280;21982;49.804;24.072;2023-09-12T09:24:14;97234.53;;;38.20;27.71
35878;BME280;21982;49.804;24.072;2023-09-12T09:26:49;97237.59;;;38.38;27.69
35878;BME280;21982;49.804;24.072;2023-09-12T09:29:16;97241.94;;;38.62;27.36
35878;BME280;21982;49.804;24.072;2023-09-12T09:31:42;97248.50;;;38.77;27.21
35878;BME280;21982;49.804;24.072;2023-09-12T09:34:17;97238.66;;;38.83;27.04
35878;BME280;21982;49.804;24.072;2023-09-12T09:39:10;97243.81;;;38.84;27.02
35878;BME280;21982;49.804;24.072;2023-09-12T09:41:37;97226.78;;;38.79;26.97
35878;BME280;21982;49.804;24.072;2023-09-12T09:44:05;97241.75;;;39.04;26.79
35878;BME280;21982;49.804;24.072;2023-09-12T09:46:31;97239.19;;;38.92;26.49
35878;BME280;21982;49.804;24.072;2023-09-12T09:48:57;97224.81;;;38.83;26.86
35878;BME280;21982;49.804;24.072;2023-09-12T09:51:25;97237.66;;;39.58;26.27
35878;BME280;21982;49.804;24.072;2023-09-12T09:53:54;97210.31;;;39.94;25.55
35878;BME280;21982;49.804;24.072;2023-09-12T09:56:24;97239.56;;;39.87;25.99
35878;BME280;21982;49.804;24.072;2023-09-12T09:58:56;97231.88;;;39.70;25.84
35878;BME280;21982;49.804;24.072;2023-09-12T10:01:27;97233.31;;;39.57;26.37
35878;BME280;21982;49.804;24.072;2023-09-12T10:03:57;97223.13;;;39.68;25.75
35878;BME280;21982;49.804;24.072;2023-09-12T10:06:23;97243.88;;;39.14;26.07
35878;BME280;21982;49.804;24.072;2023-09-12T10:08:53;97232.38;;;39.12;26.03
35878;BME280;21982;49.804;24.072;2023-09-12T10:11:22;97233.19;;;39.16;26.09
35878;BME280;21982;49.804;24.072;2023-09-12T10:13:56;97219.78;;;39.18;26.22
35878;BME280;21982;49.804;24.072;2023-09-12T10:16:23;97204.91;;;39.34;25.87
35878;BME280;21982;49.804;24.072;2023-09-12T10:18:59;97227.19;;;39.78;25.67
35878;BME280;21982;49.804;24.072;2023-09-12T10:21:30;97221.88;;;39.62;26.04
35878;BME280;21982;49.804;24.072;2023-09-12T10:23:58;97226.34;;;39.37;26.16
35878;BME280;21982;49.804;24.072;2023-09-12T10:26:24;97230.16;;;39.25;26.48
35878;BME280;21982;49.804;24.072;2023-09-12T10:28:50;97227.31;;;39.51;25.57
35878;BME280;21982;49.804;24.072;2023-09-12T10:31:16;97213.56;;;39.29;25.91
35878;BME280;21982;49.804;24.072;2023-09-12T10:33:43;97216.00;;;39.67;25.78
35878;BME280;21982;49.804;24.072;2023-09-12T10:36:11;97218.50;;;40.24;25.21
35878;BME280;21982;49.804;24.072;2023-09-12T10:38:48;97206.91;;;40.62;25.27
35878;BME280;21982;49.804;24.072;2023-09-12T10:41:14;97215.38;;;40.80;24.49
35878;BME280;21982;49.804;24.072;2023-09-12T10:43:41;97161.91;;;41.04;24.12
35878;BME280;21982;49.804;24.072;2023-09-12T10:46:08;97187.56;;;41.77;22.97
35878;BME280;21982;49.804;24.072;2023-09-12T10:48:37;97183.16;;;41.66;23.30
35878;BME280;21982;49.804;24.072;2023-09-12T10:51:06;97201.78;;;41.44;23.47
35878;BME280;21982;49.804;24.072;2023-09-12T10:53:32;97192.97;;;41.21;24.08
35878;BME280;21982;49.804;24.072;2023-09-12T10:56:14;97202.09;;;41.28;24.05
35878;BME280;21982;49.804;24.072;2023-09-12T11:01:36;97206.66;;;42.00;23.27
35878;BME280;21982;49.804;24.072;2023-09-12T11:06:48;97201.09;;;42.61;22.41
35878;BME280;21982;49.804;24.072;2023-09-12T11:11:46;97124.66;;;41.16;22.83
35878;BME280;21982;49.804;24.072;2023-09-12T11:14:15;97184.03;;;40.79;23.28
35878;BME280;21982;49.804;24.072;2023-09-12T11:16:41;97202.03;;;40.41;23.76
35878;BME280;21982;49.804;24.072;2023-09-12T11:19:21;97207.53;;;40.34;23.82
35878;BME280;21982;49.804;24.072;2023-09-12T11:21:51;97205.41;;;40.20;23.88
35878;BME280;21982;49.804;24.072;2023-09-12T11:24:18;97180.16;;;39.88;24.09
35878;BME280;21982;49.804;24.072;2023-09-12T11:27:00;97196.53;;;40.01;23.96
35878;BME280;21982;49.804;24.072;2023-09-12T11:29:45;97194.97;;;40.03;24.41
35878;BME280;21982;49.804;24.072;2023-09-12T11:32:25;97130.44;;;40.10;23.72
35878;BME280;21982;49.804;24.072;2023-09-12T11:34:50;97149.22;;;39.86;23.88
35878;BME280;21982;49.804;24.072;2023-09-12T11:37:26;97195.72;;;40.00;24.64
35878;BME280;21982;49.804;24.072;2023-09-12T11:39:53;97197.66;;;39.93;24.40
35878;BME280;21982;49.804;24.072;2023-09-12T11:42:19;97181.69;;;39.82;24.36
35878;BME280;21982;49.804;24.072;2023-09-12T11:44:48;97165.59;;;39.99;24.36
35878;BME280;21982;49.804;24.072;2023-09-12T11:47:14;97185.44;;;40.48;24.24
35878;BME280;21982;49.804;24.072;2023-09-12T11:49:42;97177.09;;;41.17;23.55
35878;BME280;21982;49.804;24.072;2023-09-12T11:52:09;97138.09;;;41.03;23.25
35878;BME280;21982;49.804;24.072;2023-09-12T11:54:36;97178.47;;;40.76;23.43
35878;BME280;21982;49.804;24.072;2023-09-12T11:57:02;97178.88;;;40.27;23.62
35878;BME280;21982;49.804;24.072;2023-09-12T11:59:31;97174.56;;;39.81;24.25
35878;BME280;21982;49.804;24.072;2023-09-12T12:01:57;97143.91;;;39.27;24.45
35878;BME280;21982;49.804;24.072;2023-09-12T12:04:26;97156.47;;;39.20;24.83
35878;BME280;21982;49.804;24.072;2023-09-12T12:06:52;97163.78;;;39.36;24.33
35878;BME280;21982;49.804;24.072;2023-09-12T12:09:18;97129.03;;;39.42;23.67
35878;BME280;21982;49.804;24.072;2023-09-12T12:11:45;97122.16;;;39.69;23.93
35878;BME280;21982;49.804;24.072;2023-09-12T12:14:16;97150.72;;;40.21;23.61
35878;BME280;21982;49.804;24.072;2023-09-12T12:16:43;97139.53;;;40.07;23.29
35878;BME280;21982;49.804;24.072;2023-09-12T12:19:12;97147.09;;;40.10;23.62
35878;BME280;21982;49.804;24.072;2023-09-12T12:21:40;97171.75;;;40.26;23.77
35878;BME280;21982;49.804;24.072;2023-09-12T12:24:09;97158.31;;;40.31;23.31
35878;BME280;21982;49.804;24.072;2023-09-12T12:26:35;97122.69;;;39.85;23.72
35878;BME280;21982;49.804;24.072;2023-09-12T12:29:05;97161.41;;;40.19;23.75
35878;BME280;21982;49.804;24.072;2023-09-12T12:31:30;97132.53;;;39.76;23.79
35878;BME280;21982;49.804;24.072;2023-09-12T12:33:57;97116.78;;;39.06;24.31
35878;BME280;21982;49.804;24.072;2023-09-12T12:36:23;97086.53;;;37.77;25.40
35878;BME280;21982;49.804;24.072;2023-09-12T12:38:49;97148.16;;;36.97;26.29
35878;BME280;21982;49.804;24.072;2023-09-12T12:41:16;97099.66;;;35.44;27.79
35878;BME280;21982;49.804;24.072;2023-09-12T12:43:49;97093.06;;;34.61;29.00
35878;BME280;21982;49.804;24.072;2023-09-12T12:46:16;97151.63;;;35.30;28.84
35878;BME280;21982;49.804;24.072;2023-09-12T12:48:43;97145.97;;;35.54;28.75
35878;BME280;21982;49.804;24.072;2023-09-12T12:51:33;97118.25;;;35.63;28.86
35878;BME280;21982;49.804;24.072;2023-09-12T12:54:04;97114.25;;;35.60;28.41
35878;BME280;21982;49.804;24.072;2023-09-12T12:56:30;97145.44;;;35.20;28.83
35878;BME280;21982;49.804;24.072;2023-09-12T12:58:58;97137.75;;;34.98;29.22
35878;BME280;21982;49.804;24.072;2023-09-12T13:01:24;97097.84;;;34.12;29.31